createdAt,value
2023-02-16T00:00:38.018Z,7.29
2023-02-16T00:01:33.075Z,7.12
2023-02-16T00:02:17.043Z,7.22
2023-02-16T00:03:04.158Z,7.23
2023-02-16T00:03:37.719Z,7.12
2023-02-16T00:04:46.015Z,7.31
2023-02-16T00:05:32.605Z,7.12
2023-02-16T00:06:23.043Z,7.15
2023-02-16T00:06:58.054Z,7.05
2023-02-16T00:07:45.003Z,7.07
2023-02-16T00:08:25.092Z,7.21
2023-02-16T00:09:05.052Z,7.08
2023-02-16T00:09:45.016Z,6.89
2023-02-16T00:10:26.090Z,7.07
2023-02-16T00:11:24.995Z,7.03
2023-02-16T00:12:24.856Z,6.96
2023-02-16T00:13:24.016Z,6.91
2023-02-16T00:14:04.002Z,6.76
2023-02-16T00:14:40.071Z,6.59
2023-02-16T00:15:27.991Z,6.59
2023-02-16T00:16:02.113Z,6.70
2023-02-16T00:16:49.010Z,6.77
2023-02-16T00:17:23.072Z,6.55
2023-02-16T00:18:12.017Z,6.15
2023-02-16T00:18:53.023Z,6.29
2023-02-16T00:19:51.014Z,6.51
2023-02-16T00:20:45.012Z,6.37
2023-02-16T00:21:38.974Z,6.42
2023-02-16T00:22:32.974Z,6.56
2023-02-16T00:23:27.004Z,6.49
2023-02-16T00:24:14.016Z,6.28
2023-02-16T00:24:48.056Z,6.31
2023-02-16T00:25:34.999Z,6.44
2023-02-16T00:26:09.042Z,6.43
2023-02-16T00:26:56.976Z,6.44
2023-02-16T00:27:31.063Z,6.30
2023-02-16T00:28:25.002Z,6.41
2023-02-16T00:29:03.053Z,6.37
2023-02-16T00:29:45.864Z,6.36
2023-02-16T00:30:28.093Z,6.41
2023-02-16T00:31:08.226Z,6.47
2023-02-16T00:31:48.157Z,6.41
2023-02-16T00:32:28.978Z,6.43
2023-02-16T00:33:09.051Z,6.32
2023-02-16T00:33:49.978Z,6.37
2023-02-16T00:34:51.010Z,6.44
2023-02-16T00:35:45.016Z,6.37
2023-02-16T00:36:39.002Z,6.28
2023-02-16T00:37:32.987Z,6.23
2023-02-16T00:38:27.994Z,6.35
2023-02-16T00:39:21.973Z,6.31
2023-02-16T00:40:09.995Z,6.51
2023-02-16T00:40:44.065Z,6.45
2023-02-16T00:41:49.971Z,6.26
2023-02-16T00:42:34.078Z,6.34
2023-02-16T00:43:13.974Z,6.32
2023-02-16T00:43:54.891Z,6.26
2023-02-16T00:44:42.975Z,6.21
2023-02-16T00:45:33.992Z,6.27
2023-02-16T00:46:09.033Z,6.17
2023-02-16T00:46:57.986Z,6.07
2023-02-16T00:47:38.987Z,6.15
2023-02-16T00:48:25.995Z,6.02
2023-02-16T00:48:59.651Z,6.17
2023-02-16T00:49:46.989Z,6.07
2023-02-16T00:50:24.727Z,6.11
2023-02-16T00:51:20.340Z,5.85
2023-02-16T00:51:59.084Z,5.76
2023-02-16T00:52:39.184Z,5.82
2023-02-16T00:53:19.955Z,6.03
2023-02-16T00:53:54.078Z,5.88
2023-02-16T00:54:28.214Z,5.83
2023-02-16T00:55:37.004Z,5.86
2023-02-16T00:56:19.010Z,6.00
2023-02-16T00:56:52.683Z,5.84
2023-02-16T00:57:43.980Z,5.93
2023-02-16T00:58:31.906Z,5.84
2023-02-16T00:59:21.989Z,5.79
2023-02-16T01:00:03.955Z,5.84
2023-02-16T01:00:57.961Z,5.91
2023-02-16T01:01:39.021Z,5.78
2023-02-16T01:02:23.049Z,5.68
2023-02-16T01:03:09.953Z,5.87
2023-02-16T01:03:50.999Z,5.84
2023-02-16T01:04:31.102Z,5.85
2023-02-16T01:05:12.030Z,5.81
2023-02-16T01:05:51.954Z,5.85
2023-02-16T01:06:56.997Z,5.78
2023-02-16T01:07:49.511Z,5.72
2023-02-16T01:08:54.963Z,5.70
2023-02-16T01:09:47.363Z,5.73
2023-02-16T01:10:51.957Z,5.81
2023-02-16T01:11:26.669Z,5.84
2023-02-16T01:12:17.001Z,5.82
2023-02-16T01:12:50.740Z,5.65
2023-02-16T01:13:41.932Z,5.73
2023-02-16T01:14:15.676Z,5.68
2023-02-16T01:15:06.995Z,5.55
2023-02-16T01:15:41.772Z,5.52
2023-02-16T01:16:33.970Z,5.60
2023-02-16T01:17:07.730Z,5.48
2023-02-16T01:17:48.954Z,5.49
2023-02-16T01:18:25.022Z,5.47
2023-02-16T01:18:58.695Z,5.41
2023-02-16T01:19:38.930Z,5.54
2023-02-16T01:20:31.991Z,5.46
2023-02-16T01:21:05.786Z,5.57
2023-02-16T01:21:46.945Z,5.50
2023-02-16T01:22:21.020Z,5.53
2023-02-16T01:23:00.985Z,5.64
2023-02-16T01:23:42.033Z,5.54
2023-02-16T01:24:21.957Z,5.32
2023-02-16T01:25:02.005Z,5.45
2023-02-16T01:25:43.934Z,5.58
2023-02-16T01:26:26.979Z,5.40
2023-02-16T01:27:06.916Z,5.37
2023-02-16T01:27:47.995Z,5.39
2023-02-16T01:28:32.933Z,5.31
2023-02-16T01:29:13.999Z,5.30
2023-02-16T01:29:53.931Z,5.24
2023-02-16T01:30:35.008Z,5.45
2023-02-16T01:31:18.025Z,5.33
2023-02-16T01:31:58.193Z,5.26
2023-02-16T01:32:37.916Z,5.27
2023-02-16T01:33:18.042Z,5.47
2023-02-16T01:33:57.923Z,5.44
2023-02-16T01:34:39.367Z,5.38
2023-02-16T01:35:20.932Z,5.29
2023-02-16T01:36:02.994Z,5.33
2023-02-16T01:36:50.951Z,5.14
2023-02-16T01:37:30.994Z,5.26
2023-02-16T01:38:10.931Z,5.31
2023-02-16T01:38:51.974Z,5.10
2023-02-16T01:39:31.936Z,4.93
2023-02-16T01:40:12.987Z,5.18
2023-02-16T01:41:45.912Z,5.11
2023-02-16T01:42:51.741Z,5.16
2023-02-16T01:43:52.905Z,5.19
2023-02-16T01:45:11.949Z,5.07
2023-02-16T01:45:51.618Z,4.94
2023-02-16T01:47:06.906Z,5.21
2023-02-16T01:47:50.062Z,5.09
2023-02-16T01:48:44.940Z,5.19
2023-02-16T01:49:20.477Z,5.09
2023-02-16T01:50:07.894Z,5.12
2023-02-16T01:51:31.941Z,4.92
2023-02-16T01:52:33.008Z,5.12
2023-02-16T01:53:27.903Z,5.21
2023-02-16T01:54:27.990Z,5.19
2023-02-16T01:55:33.915Z,5.02
2023-02-16T01:56:30.028Z,5.12
2023-02-16T01:57:17.898Z,4.93
2023-02-16T01:58:58.942Z,5.01
2023-02-16T01:59:54.907Z,5.23
2023-02-16T02:01:01.021Z,5.12
2023-02-16T02:01:48.922Z,5.18
2023-02-16T02:03:25.920Z,4.94
2023-02-16T02:04:18.427Z,4.91
2023-02-16T02:05:37.887Z,4.98
2023-02-16T02:06:15.486Z,4.99
2023-02-16T02:07:02.891Z,5.04
2023-02-16T02:07:58.788Z,4.95
2023-02-16T02:08:53.957Z,4.92
2023-02-16T02:10:01.889Z,4.86
2023-02-16T02:11:20.900Z,4.85
2023-02-16T02:12:33.897Z,4.74
2023-02-16T02:13:42.900Z,4.76
2023-02-16T02:14:35.910Z,4.92
2023-02-16T02:15:17.134Z,4.79
2023-02-16T02:15:56.926Z,4.76
2023-02-16T02:16:36.970Z,4.90
2023-02-16T02:17:21.902Z,4.84
2023-02-16T02:18:01.955Z,4.94
2023-02-16T02:18:42.861Z,4.76
2023-02-16T02:19:22.963Z,4.80
2023-02-16T02:20:11.910Z,4.92
2023-02-16T02:21:41.568Z,4.75
2023-02-16T02:23:22.850Z,4.70
2023-02-16T02:24:17.948Z,4.78
2023-02-16T02:25:57.915Z,4.76
2023-02-16T02:26:55.943Z,4.71
2023-02-16T02:28:02.866Z,4.61
2023-02-16T02:28:56.939Z,4.66
2023-02-16T02:30:12.930Z,4.51
2023-02-16T02:31:09.208Z,4.53
2023-02-16T02:32:29.872Z,4.49
2023-02-16T02:33:59.846Z,4.72
2023-02-16T02:35:30.871Z,4.63
2023-02-16T02:36:52.066Z,4.52
2023-02-16T02:38:12.908Z,4.62
2023-02-16T02:39:38.854Z,4.53
2023-02-16T02:41:02.219Z,4.41
2023-02-16T02:42:14.889Z,4.50
2023-02-16T02:43:27.866Z,4.57
2023-02-16T02:44:22.826Z,4.60
2023-02-16T02:45:35.844Z,4.45
2023-02-16T02:46:40.886Z,4.61
2023-02-16T02:47:35.874Z,4.62
2023-02-16T02:48:29.850Z,4.72
2023-02-16T02:49:23.844Z,4.70
2023-02-16T02:50:47.840Z,4.84
2023-02-16T02:51:46.831Z,4.79
2023-02-16T02:52:40.897Z,4.59
2023-02-16T02:53:34.857Z,4.65
2023-02-16T02:54:53.830Z,4.74
2023-02-16T02:56:08.830Z,4.64
2023-02-16T02:58:03.853Z,4.70
2023-02-16T02:59:18.843Z,4.69
2023-02-16T03:00:46.914Z,4.87
2023-02-16T03:01:41.936Z,4.72
2023-02-16T03:02:37.823Z,4.77
2023-02-16T03:03:42.839Z,4.87
2023-02-16T03:04:17.890Z,4.77
2023-02-16T03:05:05.831Z,4.78
2023-02-16T03:05:40.900Z,4.72
2023-02-16T03:06:43.846Z,4.85
2023-02-16T03:07:18.904Z,4.97
2023-02-16T03:08:20.827Z,4.87
2023-02-16T03:09:06.911Z,4.91
2023-02-16T03:10:20.831Z,4.87
2023-02-16T03:11:48.241Z,4.88
2023-02-16T03:12:54.808Z,4.93
2023-02-16T03:13:59.819Z,4.98
2023-02-16T03:14:46.842Z,4.89
2023-02-16T03:15:26.888Z,4.72
2023-02-16T03:16:13.825Z,4.83
2023-02-16T03:17:19.204Z,4.66
2023-02-16T03:18:19.820Z,4.67
2023-02-16T03:19:19.438Z,4.58
2023-02-16T03:20:18.834Z,4.53
2023-02-16T03:21:18.878Z,4.57
2023-02-16T03:22:18.829Z,4.66
2023-02-16T03:23:17.384Z,4.76
2023-02-16T03:24:16.793Z,4.72
2023-02-16T03:25:15.484Z,4.80
2023-02-16T03:26:16.838Z,4.69
2023-02-16T03:27:15.239Z,4.61
2023-02-16T03:28:13.808Z,4.72
2023-02-16T03:29:12.374Z,4.62
2023-02-16T03:29:55.855Z,4.83
2023-02-16T03:30:37.010Z,4.81
2023-02-16T03:31:30.931Z,4.82
2023-02-16T03:32:10.904Z,4.80
2023-02-16T03:32:51.808Z,4.93
2023-02-16T03:33:32.898Z,4.88
2023-02-16T03:34:13.803Z,4.91
2023-02-16T03:34:53.874Z,4.82
2023-02-16T03:35:34.796Z,5.00
2023-02-16T03:36:14.877Z,4.92
2023-02-16T03:37:05.801Z,4.83
2023-02-16T03:37:47.851Z,4.87
2023-02-16T03:38:28.856Z,4.85
2023-02-16T03:39:09.845Z,4.82
2023-02-16T03:40:08.805Z,4.79
2023-02-16T03:40:49.883Z,4.85
2023-02-16T03:41:32.771Z,4.89
2023-02-16T03:42:19.792Z,4.72
2023-02-16T03:43:19.767Z,4.84
2023-02-16T03:44:13.764Z,4.76
2023-02-16T03:45:07.803Z,4.66
2023-02-16T03:46:01.795Z,4.70
2023-02-16T03:46:58.812Z,4.73
2023-02-16T03:47:38.806Z,4.90
2023-02-16T03:48:18.905Z,4.72
2023-02-16T03:48:58.756Z,4.91
2023-02-16T03:49:39.831Z,4.74
2023-02-16T03:50:20.784Z,4.72
2023-02-16T03:51:00.852Z,4.82
2023-02-16T03:51:40.799Z,4.71
2023-02-16T03:52:20.840Z,4.71
2023-02-16T03:53:12.790Z,4.77
2023-02-16T03:53:52.825Z,4.86
2023-02-16T03:54:32.792Z,4.79
2023-02-16T03:55:12.831Z,4.79
2023-02-16T03:55:54.751Z,4.97
2023-02-16T03:56:34.865Z,4.87
2023-02-16T03:57:14.817Z,4.88
2023-02-16T03:57:55.859Z,4.88
2023-02-16T03:58:35.805Z,4.76
2023-02-16T03:59:15.942Z,4.64
2023-02-16T03:59:59.279Z,4.78
2023-02-16T04:00:40.806Z,4.77
2023-02-16T04:01:20.756Z,4.62
2023-02-16T04:02:00.892Z,4.63
2023-02-16T04:02:41.772Z,4.68
2023-02-16T04:03:21.851Z,4.66
2023-02-16T04:04:01.880Z,4.63
2023-02-16T04:04:41.821Z,4.76
2023-02-16T04:05:21.806Z,4.71
2023-02-16T04:06:02.816Z,4.78
2023-02-16T04:06:42.761Z,4.57
2023-02-16T04:07:22.862Z,4.75
2023-02-16T04:08:03.780Z,4.73
2023-02-16T04:08:43.852Z,4.78
2023-02-16T04:09:23.805Z,4.65
2023-02-16T04:10:18.755Z,4.75
2023-02-16T04:11:30.757Z,4.71
2023-02-16T04:12:44.768Z,4.55
2023-02-16T04:13:38.761Z,4.69
2023-02-16T04:14:32.784Z,4.59
2023-02-16T04:15:36.755Z,4.78
2023-02-16T04:16:30.842Z,4.73
2023-02-16T04:17:24.788Z,4.62
2023-02-16T04:18:18.744Z,4.65
2023-02-16T04:19:13.773Z,4.74
2023-02-16T04:19:53.785Z,4.73
2023-02-16T04:20:38.886Z,4.62
2023-02-16T04:21:18.740Z,4.79
2023-02-16T04:21:58.804Z,4.68
2023-02-16T04:22:38.731Z,4.78
2023-02-16T04:23:18.840Z,4.71
2023-02-16T04:23:59.748Z,4.58
2023-02-16T04:24:39.830Z,4.68
2023-02-16T04:25:21.808Z,4.70
2023-02-16T04:26:02.809Z,4.63
2023-02-16T04:26:42.750Z,4.69
2023-02-16T04:27:22.807Z,4.60
2023-02-16T04:28:03.742Z,4.68
2023-02-16T04:28:43.801Z,4.61
2023-02-16T04:29:23.761Z,4.33
2023-02-16T04:30:04.874Z,4.45
2023-02-16T04:30:44.835Z,4.36
2023-02-16T04:31:24.922Z,4.48
2023-02-16T04:32:04.896Z,4.49
2023-02-16T04:32:44.791Z,4.51
2023-02-16T04:33:24.719Z,4.59
2023-02-16T04:34:04.783Z,4.53
2023-02-16T04:34:44.728Z,4.64
2023-02-16T04:35:25.802Z,4.52
2023-02-16T04:36:05.743Z,4.59
2023-02-16T04:36:45.832Z,4.51
2023-02-16T04:37:25.759Z,4.55
2023-02-16T04:38:06.774Z,4.50
2023-02-16T04:38:53.746Z,4.51
2023-02-16T04:39:27.830Z,4.63
2023-02-16T04:40:19.771Z,4.67
2023-02-16T04:40:53.772Z,4.59
2023-02-16T04:41:33.714Z,4.63
2023-02-16T04:42:13.762Z,4.51
2023-02-16T04:42:53.702Z,4.36
2023-02-16T04:43:35.822Z,4.48
2023-02-16T04:44:15.722Z,4.47
2023-02-16T04:45:09.705Z,4.49
2023-02-16T04:46:03.757Z,4.59
2023-02-16T04:46:50.754Z,4.58
2023-02-16T04:47:26.617Z,4.63
2023-02-16T04:48:13.721Z,4.70
2023-02-16T04:48:47.789Z,4.55
2023-02-16T04:49:34.759Z,4.66
2023-02-16T04:50:08.796Z,4.66
2023-02-16T04:50:56.714Z,4.58
2023-02-16T04:51:30.770Z,4.61
2023-02-16T04:52:11.724Z,4.60
2023-02-16T04:52:51.779Z,4.57
2023-02-16T04:53:31.702Z,4.50
2023-02-16T04:54:15.769Z,4.67
2023-02-16T04:54:55.907Z,4.59
2023-02-16T04:55:35.746Z,4.57
2023-02-16T04:56:17.728Z,4.41
2023-02-16T04:56:57.811Z,4.51
2023-02-16T04:57:38.748Z,4.42
2023-02-16T04:58:19.765Z,4.57
2023-02-16T04:58:59.707Z,4.47
2023-02-16T04:59:39.752Z,4.51
2023-02-16T05:00:21.732Z,4.46
2023-02-16T05:01:02.000Z,4.39
2023-02-16T05:01:41.741Z,4.49
2023-02-16T05:03:01.723Z,4.54
2023-02-16T05:03:55.685Z,4.49
2023-02-16T05:04:49.779Z,4.44
2023-02-16T05:05:43.722Z,4.46
2023-02-16T05:06:37.720Z,4.54
2023-02-16T05:07:31.681Z,4.65
2023-02-16T05:08:20.827Z,4.65
2023-02-16T05:08:54.751Z,4.58
2023-02-16T05:09:41.709Z,4.47
2023-02-16T05:10:16.770Z,4.51
2023-02-16T05:11:22.688Z,4.41
2023-02-16T05:12:15.810Z,4.61
2023-02-16T05:13:21.747Z,4.39
2023-02-16T05:14:14.140Z,4.58
2023-02-16T05:15:00.662Z,4.61
2023-02-16T05:15:34.755Z,4.61
2023-02-16T05:16:21.687Z,4.66
2023-02-16T05:16:55.759Z,4.72
2023-02-16T05:17:42.713Z,4.65
2023-02-16T05:18:16.767Z,4.70
2023-02-16T05:18:58.795Z,4.67
2023-02-16T05:19:39.370Z,4.66
2023-02-16T05:20:21.857Z,4.70
2023-02-16T05:21:20.447Z,4.59
2023-02-16T05:22:00.709Z,4.73
2023-02-16T05:22:40.906Z,4.59
2023-02-16T05:23:21.705Z,4.55
2023-02-16T05:24:08.838Z,4.50
2023-02-16T05:25:02.733Z,4.47
2023-02-16T05:25:56.744Z,4.63
2023-02-16T05:26:51.697Z,4.55
2023-02-16T05:27:45.790Z,4.60
2023-02-16T05:28:39.695Z,4.63
2023-02-16T05:29:27.695Z,4.67
2023-02-16T05:30:01.860Z,4.60
2023-02-16T05:30:48.732Z,4.59
2023-02-16T05:31:22.986Z,4.50
2023-02-16T05:32:09.715Z,4.66
2023-02-16T05:32:43.750Z,4.53
2023-02-16T05:33:30.656Z,4.72
2023-02-16T05:34:04.770Z,4.45
2023-02-16T05:34:52.669Z,4.62
2023-02-16T05:35:26.768Z,4.68
2023-02-16T05:36:14.668Z,4.55
2023-02-16T05:36:48.838Z,4.21
2023-02-16T05:37:35.677Z,4.62
2023-02-16T05:38:09.738Z,4.62
2023-02-16T05:38:57.693Z,4.65
2023-02-16T05:39:31.813Z,4.40
2023-02-16T05:40:14.677Z,4.11
2023-02-16T05:40:54.759Z,4.34
2023-02-16T05:41:39.125Z,4.35
2023-02-16T05:42:19.751Z,4.24
2023-02-16T05:43:01.671Z,4.22
2023-02-16T05:43:41.714Z,4.40
2023-02-16T05:44:22.673Z,4.28
2023-02-16T05:45:03.539Z,4.27
2023-02-16T05:45:45.670Z,4.30
2023-02-16T05:46:26.808Z,4.19
2023-02-16T05:47:06.674Z,4.19
2023-02-16T05:47:48.755Z,4.21
2023-02-16T05:48:31.680Z,4.31
2023-02-16T05:49:13.729Z,4.34
2023-02-16T05:49:53.688Z,4.35
2023-02-16T05:50:33.722Z,4.19
2023-02-16T05:51:13.693Z,4.30
2023-02-16T05:51:55.119Z,4.33
2023-02-16T05:52:34.663Z,4.28
2023-02-16T05:53:17.716Z,4.25
2023-02-16T05:53:58.639Z,4.42
2023-02-16T05:54:38.810Z,4.22
2023-02-16T05:55:19.690Z,4.31
2023-02-16T05:56:00.754Z,4.30
2023-02-16T05:56:40.755Z,4.47
2023-02-16T05:57:20.793Z,4.46
2023-02-16T05:58:00.659Z,4.28
2023-02-16T05:58:40.702Z,4.23
2023-02-16T05:59:22.633Z,4.28
2023-02-16T06:00:03.774Z,4.31
2023-02-16T06:00:44.716Z,4.21
2023-02-16T06:01:24.752Z,4.14
2023-02-16T06:02:05.643Z,4.22
2023-02-16T06:02:45.774Z,4.23
2023-02-16T06:03:25.704Z,4.33
2023-02-16T06:04:06.796Z,4.09
2023-02-16T06:04:46.638Z,4.16
2023-02-16T06:05:26.764Z,4.16
2023-02-16T06:06:09.669Z,4.17
2023-02-16T06:06:50.253Z,3.99
2023-02-16T06:07:30.669Z,3.95
2023-02-16T06:08:11.726Z,4.02
2023-02-16T06:08:52.667Z,4.11
2023-02-16T06:09:32.720Z,4.14
2023-02-16T06:10:16.771Z,4.21
2023-02-16T06:10:57.836Z,4.06
2023-02-16T06:11:43.650Z,4.08
2023-02-16T06:12:24.693Z,4.07
2023-02-16T06:13:04.682Z,4.21
2023-02-16T06:13:44.712Z,4.29
2023-02-16T06:14:27.650Z,4.30
2023-02-16T06:15:08.736Z,4.11
2023-02-16T06:15:49.747Z,4.02
2023-02-16T06:16:33.787Z,4.21
2023-02-16T06:17:13.659Z,4.15
2023-02-16T06:17:53.701Z,4.10
2023-02-16T06:18:33.680Z,4.13
2023-02-16T06:19:16.263Z,4.19
2023-02-16T06:19:57.640Z,4.16
2023-02-16T06:20:37.746Z,4.15
2023-02-16T06:21:19.839Z,4.19
2023-02-16T06:21:59.696Z,4.12
2023-02-16T06:22:39.643Z,4.11
2023-02-16T06:23:33.634Z,4.18
2023-02-16T06:24:27.683Z,4.15
2023-02-16T06:25:21.644Z,4.09
2023-02-16T06:26:15.650Z,4.17
2023-02-16T06:27:09.643Z,4.26
2023-02-16T06:28:03.651Z,4.28
2023-02-16T06:28:51.642Z,4.22
2023-02-16T06:29:25.695Z,4.37
2023-02-16T06:30:14.667Z,4.28
2023-02-16T06:30:48.701Z,4.32
2023-02-16T06:31:36.854Z,4.38
2023-02-16T06:32:11.799Z,4.16
2023-02-16T06:32:58.605Z,4.45
2023-02-16T06:33:32.699Z,4.40
2023-02-16T06:34:13.637Z,4.38
2023-02-16T06:34:55.769Z,4.36
2023-02-16T06:35:36.623Z,4.41
2023-02-16T06:36:17.673Z,4.37
2023-02-16T06:37:01.020Z,4.18
2023-02-16T06:37:41.661Z,4.24
2023-02-16T06:38:21.619Z,4.38
2023-02-16T06:39:01.682Z,4.52
2023-02-16T06:39:42.683Z,4.46
2023-02-16T06:40:23.790Z,4.46
2023-02-16T06:41:03.929Z,4.44
2023-02-16T06:41:44.688Z,4.32
2023-02-16T06:42:24.594Z,4.41
2023-02-16T06:43:04.764Z,4.55
2023-02-16T06:43:45.633Z,4.46
2023-02-16T06:44:25.699Z,4.37
2023-02-16T06:45:05.671Z,4.35
2023-02-16T06:45:45.717Z,4.47
2023-02-16T06:46:25.675Z,4.55
2023-02-16T06:47:05.671Z,4.31
2023-02-16T06:47:46.606Z,4.36
2023-02-16T06:48:26.675Z,4.26
2023-02-16T06:49:07.603Z,4.40
2023-02-16T06:49:47.666Z,4.36
2023-02-16T06:50:28.609Z,4.38
2023-02-16T06:51:08.720Z,4.32
2023-02-16T06:51:49.663Z,4.26
2023-02-16T06:52:29.791Z,4.33
2023-02-16T06:53:10.599Z,4.30
2023-02-16T06:53:50.714Z,4.16
2023-02-16T06:54:30.634Z,4.21
2023-02-16T06:55:10.695Z,4.14
2023-02-16T06:55:51.663Z,4.15
2023-02-16T06:56:31.730Z,4.16
2023-02-16T06:57:11.587Z,4.20
2023-02-16T06:57:51.659Z,4.30
2023-02-16T06:58:31.629Z,4.33
2023-02-16T06:59:11.689Z,4.35
2023-02-16T06:59:52.610Z,4.38
2023-02-16T07:00:32.647Z,4.33
2023-02-16T07:01:12.732Z,4.34
2023-02-16T07:01:52.791Z,4.40
2023-02-16T07:02:55.614Z,4.43
2023-02-16T07:03:49.600Z,4.34
2023-02-16T07:04:43.563Z,4.37
2023-02-16T07:05:38.572Z,4.48
2023-02-16T07:06:33.629Z,4.59
2023-02-16T07:07:27.582Z,4.35
2023-02-16T07:08:21.620Z,4.41
2023-02-16T07:09:16.592Z,4.42
2023-02-16T07:10:10.597Z,4.46
2023-02-16T07:11:06.861Z,4.28
2023-02-16T07:11:54.597Z,4.47
2023-02-16T07:12:28.668Z,4.36
2023-02-16T07:13:15.562Z,4.45
2023-02-16T07:13:49.717Z,4.36
2023-02-16T07:14:38.586Z,4.51
2023-02-16T07:15:13.655Z,4.52
2023-02-16T07:16:00.626Z,4.36
2023-02-16T07:16:34.745Z,4.29
2023-02-16T07:17:15.584Z,4.28
2023-02-16T07:18:09.621Z,4.49
2023-02-16T07:19:03.574Z,4.39
2023-02-16T07:19:59.879Z,4.41
2023-02-16T07:20:53.607Z,4.55
2023-02-16T07:21:47.607Z,4.56
2023-02-16T07:22:36.628Z,4.39
2023-02-16T07:23:10.640Z,4.50
2023-02-16T07:23:57.558Z,4.53
2023-02-16T07:24:31.615Z,4.63
2023-02-16T07:25:18.537Z,4.58
2023-02-16T07:25:52.702Z,4.58
2023-02-16T07:26:39.570Z,4.56
2023-02-16T07:27:13.659Z,4.55
2023-02-16T07:28:01.593Z,4.74
2023-02-16T07:28:36.686Z,4.59
2023-02-16T07:29:23.579Z,4.47
2023-02-16T07:29:57.697Z,4.59
2023-02-16T07:30:44.588Z,4.48
2023-02-16T07:31:26.385Z,4.62
2023-02-16T07:32:13.601Z,4.62
2023-02-16T07:32:47.656Z,4.56
2023-02-16T07:33:28.584Z,4.58
2023-02-16T07:34:09.629Z,4.50
2023-02-16T07:34:49.598Z,4.58
2023-02-16T07:35:29.714Z,4.49
2023-02-16T07:36:10.554Z,4.63
2023-02-16T07:36:50.613Z,4.67
2023-02-16T07:37:30.546Z,4.66
2023-02-16T07:38:12.584Z,4.67
2023-02-16T07:38:52.584Z,4.67
2023-02-16T07:39:32.784Z,4.71
2023-02-16T07:40:13.624Z,4.61
2023-02-16T07:40:53.593Z,4.68
2023-02-16T07:41:33.564Z,4.76
2023-02-16T07:42:14.643Z,4.70
2023-02-16T07:42:54.748Z,4.85
2023-02-16T07:43:37.515Z,4.83
2023-02-16T07:44:17.523Z,4.83
2023-02-16T07:44:57.638Z,4.79
2023-02-16T07:45:41.550Z,5.00
2023-02-16T07:46:22.631Z,4.72
2023-02-16T07:47:03.715Z,4.68
2023-02-16T07:47:43.630Z,4.92
2023-02-16T07:48:24.572Z,4.91
2023-02-16T07:49:05.277Z,4.90
2023-02-16T07:49:46.598Z,4.84
2023-02-16T07:50:27.599Z,5.00
2023-02-16T07:51:08.646Z,4.93
2023-02-16T07:51:48.627Z,4.88
2023-02-16T07:52:28.531Z,4.99
2023-02-16T07:53:11.761Z,5.14
2023-02-16T07:53:52.562Z,5.09
2023-02-16T07:54:33.612Z,5.04
2023-02-16T07:55:14.575Z,5.09
2023-02-16T07:55:54.598Z,5.02
2023-02-16T07:56:38.509Z,4.95
2023-02-16T07:57:18.605Z,5.15
2023-02-16T07:58:03.546Z,5.21
2023-02-16T07:58:44.608Z,5.21
2023-02-16T07:59:24.529Z,5.12
2023-02-16T08:00:05.271Z,5.20
2023-02-16T08:00:46.532Z,5.13
2023-02-16T08:01:27.688Z,5.18
2023-02-16T08:02:08.697Z,5.36
2023-02-16T08:02:49.692Z,5.30
2023-02-16T08:03:30.620Z,5.21
2023-02-16T08:04:10.647Z,5.35
2023-02-16T08:04:50.524Z,5.34
2023-02-16T08:05:30.717Z,5.33
2023-02-16T08:06:12.559Z,5.46
2023-02-16T08:06:53.600Z,5.42
2023-02-16T08:07:34.512Z,5.53
2023-02-16T08:08:14.650Z,5.56
2023-02-16T08:08:55.546Z,5.39
2023-02-16T08:09:35.701Z,5.49
2023-02-16T08:10:16.494Z,5.35
2023-02-16T08:10:57.557Z,5.49
2023-02-16T08:11:38.699Z,5.64
2023-02-16T08:12:21.857Z,5.66
2023-02-16T08:13:01.516Z,5.73
2023-02-16T08:13:41.628Z,5.80
2023-02-16T08:14:22.504Z,5.81
2023-02-16T08:15:04.446Z,5.78
2023-02-16T08:15:48.505Z,5.79
2023-02-16T08:16:43.620Z,5.91
2023-02-16T08:17:37.494Z,5.81
2023-02-16T08:18:31.527Z,5.70
2023-02-16T08:19:25.498Z,5.71
2023-02-16T08:20:23.834Z,5.72
2023-02-16T08:21:30.500Z,5.77
2023-02-16T08:22:11.526Z,5.73
2023-02-16T08:22:51.566Z,5.76
2023-02-16T08:23:32.495Z,5.74
2023-02-16T08:24:14.733Z,5.83
2023-02-16T08:24:54.554Z,5.75
2023-02-16T08:25:34.564Z,5.84
2023-02-16T08:26:18.545Z,5.87
2023-02-16T08:27:12.572Z,5.79
2023-02-16T08:28:06.487Z,5.88
2023-02-16T08:29:02.519Z,5.92
2023-02-16T08:29:56.493Z,6.09
2023-02-16T08:30:51.700Z,5.98
2023-02-16T08:31:48.567Z,5.95
2023-02-16T08:32:36.516Z,5.91
2023-02-16T08:33:10.563Z,5.95
2023-02-16T08:33:59.502Z,6.11
2023-02-16T08:34:33.701Z,6.03
2023-02-16T08:35:21.476Z,6.07
2023-02-16T08:35:55.688Z,6.23
2023-02-16T08:36:45.512Z,6.25
2023-02-16T08:37:19.686Z,6.25
2023-02-16T08:37:59.496Z,6.05
2023-02-16T08:38:43.157Z,6.21
2023-02-16T08:39:26.481Z,6.34
2023-02-16T08:40:06.922Z,6.53
2023-02-16T08:40:46.491Z,6.48
2023-02-16T08:41:29.524Z,6.48
2023-02-16T08:42:10.464Z,6.58
2023-02-16T08:42:50.530Z,6.37
2023-02-16T08:43:30.494Z,6.51
2023-02-16T08:44:16.648Z,6.53
2023-02-16T08:44:56.608Z,6.50
2023-02-16T08:45:36.598Z,6.54
2023-02-16T08:46:17.583Z,6.68
2023-02-16T08:47:00.946Z,6.62
2023-02-16T08:47:42.495Z,6.66
2023-02-16T08:48:23.342Z,6.57
2023-02-16T08:49:06.572Z,6.34
2023-02-16T08:49:46.764Z,6.53
2023-02-16T08:50:26.479Z,6.52
2023-02-16T08:51:06.699Z,6.51
2023-02-16T08:51:54.563Z,6.36
2023-02-16T08:52:34.549Z,6.37
2023-02-16T08:53:15.494Z,6.56
2023-02-16T08:53:55.954Z,6.62
2023-02-16T08:54:39.497Z,6.64
2023-02-16T08:55:19.627Z,6.86
2023-02-16T08:56:04.764Z,6.71
2023-02-16T08:56:47.115Z,6.66
2023-02-16T08:57:27.477Z,6.64
2023-02-16T08:58:07.559Z,6.56
2023-02-16T08:58:47.466Z,6.70
2023-02-16T08:59:29.780Z,6.76
2023-02-16T09:00:29.481Z,6.72
2023-02-16T09:01:18.731Z,6.69
2023-02-16T09:01:59.504Z,6.71
2023-02-16T09:02:39.614Z,6.71
2023-02-16T09:03:19.501Z,6.70
2023-02-16T09:03:59.543Z,6.76
2023-02-16T09:04:40.466Z,6.84
2023-02-16T09:05:20.540Z,6.80
2023-02-16T09:06:01.566Z,6.67
2023-02-16T09:06:48.911Z,6.76
2023-02-16T09:07:29.467Z,6.73
2023-02-16T09:08:09.542Z,6.64
2023-02-16T09:08:51.466Z,6.63
2023-02-16T09:09:32.557Z,6.62
2023-02-16T09:10:13.464Z,6.60
2023-02-16T09:10:53.540Z,6.59
2023-02-16T09:11:33.460Z,6.70
2023-02-16T09:12:13.510Z,6.62
2023-02-16T09:12:56.460Z,6.63
2023-02-16T09:13:37.850Z,6.75
2023-02-16T09:14:18.461Z,6.67
2023-02-16T09:15:00.516Z,6.85
2023-02-16T09:15:40.425Z,6.91
2023-02-16T09:16:24.554Z,7.04
2023-02-16T09:17:05.541Z,6.99
2023-02-16T09:17:46.506Z,6.90
2023-02-16T09:18:27.444Z,7.02
2023-02-16T09:19:08.507Z,7.06
2023-02-16T09:19:50.507Z,6.94
2023-02-16T09:20:31.098Z,7.17
2023-02-16T09:21:22.431Z,7.16
2023-02-16T09:22:03.220Z,7.05
2023-02-16T09:23:25.947Z,6.96
2023-02-16T09:24:09.443Z,7.16
2023-02-16T09:24:50.517Z,7.12
2023-02-16T09:25:31.426Z,7.21
2023-02-16T09:26:12.533Z,7.19
2023-02-16T09:26:53.407Z,7.15
2023-02-16T09:27:34.722Z,7.12
2023-02-16T09:28:18.487Z,7.11
2023-02-16T09:29:00.542Z,7.01
2023-02-16T09:29:41.448Z,6.95
2023-02-16T09:30:21.599Z,7.19
2023-02-16T09:31:01.512Z,7.02
2023-02-16T09:31:44.982Z,7.14
2023-02-16T09:32:26.417Z,7.17
2023-02-16T09:33:06.522Z,7.23
2023-02-16T09:33:49.478Z,7.26
2023-02-16T09:34:30.474Z,7.22
2023-02-16T09:35:11.406Z,7.20
2023-02-16T09:35:51.567Z,7.14
2023-02-16T09:36:33.437Z,7.22
2023-02-16T09:37:14.629Z,7.18
2023-02-16T09:37:56.421Z,7.22
2023-02-16T09:38:36.714Z,7.28
2023-02-16T09:39:17.468Z,7.01
2023-02-16T09:39:57.494Z,7.24
2023-02-16T09:40:38.399Z,7.16
2023-02-16T09:42:01.522Z,7.31
2023-02-16T09:43:11.426Z,7.28
2023-02-16T09:44:26.493Z,7.03
2023-02-16T09:45:25.423Z,7.16
2023-02-16T09:46:25.488Z,7.15
2023-02-16T09:47:42.414Z,7.27
2023-02-16T09:48:55.419Z,7.20
2023-02-16T09:49:47.447Z,7.27
2023-02-16T09:50:53.925Z,7.19
2023-02-16T09:51:51.423Z,7.23
2023-02-16T09:52:42.569Z,7.30
2023-02-16T09:53:49.381Z,7.30
2023-02-16T09:54:56.431Z,7.43
2023-02-16T09:56:16.469Z,7.42
2023-02-16T09:57:19.421Z,7.38
2023-02-16T09:58:36.417Z,7.42
2023-02-16T10:00:02.412Z,7.35
2023-02-16T10:01:24.462Z,7.22
2023-02-16T10:02:51.484Z,7.46
2023-02-16T10:04:31.413Z,7.67
2023-02-16T10:05:48.427Z,7.66
2023-02-16T10:07:00.458Z,7.49
2023-02-16T10:08:14.420Z,7.67
2023-02-16T10:08:58.567Z,7.70
2023-02-16T10:09:46.389Z,7.67
2023-02-16T10:10:27.468Z,7.70
2023-02-16T10:11:39.406Z,7.64
2023-02-16T10:12:25.480Z,7.78
2023-02-16T10:13:22.394Z,7.79
2023-02-16T10:14:04.443Z,7.66
2023-02-16T10:14:55.375Z,7.84
2023-02-16T10:15:36.532Z,7.83
2023-02-16T10:16:34.368Z,7.97
2023-02-16T10:17:34.386Z,7.87
2023-02-16T10:18:12.804Z,7.98
2023-02-16T10:19:00.360Z,7.88
2023-02-16T10:19:41.441Z,8.04
2023-02-16T10:20:44.362Z,8.09
2023-02-16T10:21:27.540Z,8.12
2023-02-16T10:22:19.390Z,8.03
2023-02-16T10:23:31.403Z,8.09
2023-02-16T10:24:26.392Z,8.24
2023-02-16T10:25:43.365Z,8.29
2023-02-16T10:26:52.383Z,8.22